createdAt,value
2019-02-20T00:02:00.321Z,95.00
2019-02-20T00:04:30.931Z,94.90
2019-02-20T00:07:01.414Z,94.90
2019-02-20T00:09:31.858Z,94.90
2019-02-20T00:12:02.485Z,94.70
2019-02-20T00:14:32.928Z,94.50
2019-02-20T00:17:03.548Z,94.50
2019-02-20T00:19:34.077Z,94.60
2019-02-20T00:22:04.773Z,94.60
2019-02-20T00:24:35.253Z,94.70
2019-02-20T00:27:05.791Z,94.90
2019-02-20T00:29:36.341Z,94.80
2019-02-20T00:32:06.909Z,94.70
2019-02-20T00:34:37.577Z,94.60
2019-02-20T00:37:08.187Z,94.50
2019-02-20T00:39:38.915Z,94.60
2019-02-20T00:42:09.524Z,94.50
2019-02-20T00:44:50.016Z,94.30
2019-02-20T00:47:39.515Z,94.10
2019-02-20T00:50:10.524Z,94.00
2019-02-20T00:52:49.780Z,93.90
2019-02-20T00:55:17.338Z,93.80
2019-02-20T00:57:47.708Z,93.70
2019-02-20T01:00:18.384Z,93.90
2019-02-20T01:02:48.979Z,94.10
2019-02-20T01:05:20.707Z,94.30
2019-02-20T01:07:51.501Z,94.30
2019-02-20T01:10:22.056Z,94.40
2019-02-20T01:12:52.605Z,94.40
2019-02-20T01:15:23.135Z,94.60
2019-02-20T01:17:53.592Z,94.80
2019-02-20T01:20:24.540Z,94.90
2019-02-20T01:22:59.912Z,95.00
2019-02-20T01:25:28.370Z,95.10
2019-02-20T01:27:58.877Z,94.90
2019-02-20T01:30:29.636Z,94.90
2019-02-20T01:33:00.110Z,95.10
2019-02-20T01:35:30.760Z,95.30
2019-02-20T01:38:01.318Z,95.30
2019-02-20T01:40:31.803Z,95.50
2019-02-20T01:43:02.474Z,95.40
2019-02-20T01:45:33.323Z,95.50
2019-02-20T01:48:04.874Z,95.40
2019-02-20T01:50:35.468Z,95.40
2019-02-20T01:53:10.472Z,95.30
2019-02-20T01:55:38.346Z,95.40
2019-02-20T01:58:08.797Z,95.50
2019-02-20T02:00:39.518Z,95.80
2019-02-20T02:03:10.104Z,95.80
2019-02-20T02:05:40.726Z,95.90
2019-02-20T02:08:11.255Z,96.00
2019-02-20T02:10:41.977Z,95.70
2019-02-20T02:13:12.478Z,95.30
2019-02-20T02:15:43.053Z,94.90
2019-02-20T02:18:13.670Z,94.80
2019-02-20T02:20:44.302Z,94.60
2019-02-20T02:23:19.851Z,94.40
2019-02-20T02:25:47.140Z,94.30
2019-02-20T02:28:17.619Z,94.30
2019-02-20T02:30:48.181Z,94.40
2019-02-20T02:33:18.833Z,94.30
2019-02-20T02:35:49.507Z,94.30
2019-02-20T02:38:20.984Z,94.30
2019-02-20T02:40:51.611Z,94.20
2019-02-20T02:43:21.978Z,94.10
2019-02-20T02:45:52.370Z,94.00
2019-02-20T02:48:22.896Z,93.80
2019-02-20T02:50:53.490Z,94.10
2019-02-20T02:53:30.617Z,93.80
2019-02-20T02:55:56.214Z,93.80
2019-02-20T02:58:26.952Z,93.90
2019-02-20T03:00:57.406Z,94.10
2019-02-20T03:03:27.905Z,93.90
2019-02-20T03:05:58.401Z,93.80
2019-02-20T03:08:29.778Z,93.70
2019-02-20T03:11:00.307Z,93.80
2019-02-20T03:13:30.799Z,93.80
2019-02-20T03:16:01.396Z,93.70
2019-02-20T03:18:32.862Z,93.80
2019-02-20T03:21:03.425Z,93.70
2019-02-20T03:23:39.982Z,93.80
2019-02-20T03:26:06.113Z,93.90
2019-02-20T03:28:36.685Z,93.90
2019-02-20T03:31:07.313Z,93.90
2019-02-20T03:33:37.844Z,93.90
2019-02-20T03:36:08.464Z,94.00
2019-02-20T03:38:38.976Z,94.20
2019-02-20T03:41:09.633Z,94.30
2019-02-20T03:43:40.572Z,94.30
2019-02-20T03:46:11.105Z,94.30
2019-02-20T03:48:42.037Z,94.30
2019-02-20T03:51:12.462Z,94.20
2019-02-20T03:53:51.706Z,93.90
2019-02-20T03:56:16.574Z,93.90
2019-02-20T03:58:47.189Z,93.80
2019-02-20T04:01:17.767Z,93.80
2019-02-20T04:03:48.326Z,93.70
2019-02-20T04:06:18.878Z,93.70
2019-02-20T04:08:49.445Z,93.70
2019-02-20T04:11:19.981Z,93.60
2019-02-20T04:13:50.556Z,93.70
2019-02-20T04:16:21.352Z,93.60
2019-02-20T04:18:51.905Z,93.50
2019-02-20T04:21:22.406Z,93.40
2019-02-20T04:24:02.055Z,93.40
2019-02-20T04:26:25.129Z,93.40
2019-02-20T04:28:55.743Z,93.60
2019-02-20T04:31:26.159Z,93.30
2019-02-20T04:33:56.774Z,93.30
2019-02-20T04:36:27.624Z,93.30
2019-02-20T04:38:58.390Z,93.20
2019-02-20T04:41:28.821Z,93.10
2019-02-20T04:43:59.386Z,93.00
2019-02-20T04:46:29.942Z,93.00
2019-02-20T04:49:00.561Z,93.00
2019-02-20T04:51:31.202Z,92.80
2019-02-20T04:54:01.624Z,92.80
2019-02-20T04:56:32.249Z,92.70
2019-02-20T04:59:03.335Z,93.10
2019-02-20T05:01:33.748Z,92.70
2019-02-20T05:04:04.198Z,92.60
2019-02-20T05:06:34.641Z,92.60
2019-02-20T05:09:06.015Z,92.50
2019-02-20T05:11:37.763Z,92.50
2019-02-20T05:14:08.213Z,92.40
2019-02-20T05:16:38.725Z,92.40
2019-02-20T05:19:09.269Z,92.40
2019-02-20T05:21:39.732Z,92.30
2019-02-20T05:24:10.329Z,92.50
2019-02-20T05:26:40.798Z,92.50
2019-02-20T05:29:11.173Z,92.50
2019-02-20T05:31:41.537Z,92.50
2019-02-20T05:34:12.116Z,92.40
2019-02-20T05:36:43.194Z,92.50
2019-02-20T05:39:13.951Z,93.00
2019-02-20T05:41:44.362Z,93.00
2019-02-20T05:44:14.822Z,93.00
2019-02-20T05:46:45.264Z,92.90
2019-02-20T05:49:15.723Z,92.90
2019-02-20T05:51:46.251Z,92.90
2019-02-20T05:54:16.856Z,92.90
2019-02-20T05:56:47.382Z,92.90
2019-02-20T05:59:18.155Z,93.00
2019-02-20T06:01:48.767Z,93.20
2019-02-20T06:04:19.459Z,93.30
2019-02-20T06:06:50.014Z,93.40
2019-02-20T06:09:20.567Z,93.30
2019-02-20T06:11:51.299Z,93.50
2019-02-20T06:14:21.885Z,93.40
2019-02-20T06:16:53.276Z,93.20
2019-02-20T06:19:23.797Z,93.20
2019-02-20T06:21:54.251Z,93.20
2019-02-20T06:24:24.758Z,93.20
2019-02-20T06:26:55.503Z,92.90
2019-02-20T06:29:26.138Z,92.70
2019-02-20T06:31:56.760Z,92.60
2019-02-20T06:34:27.501Z,92.50
2019-02-20T06:36:58.005Z,92.50
2019-02-20T06:39:28.600Z,92.50
2019-02-20T06:41:59.203Z,92.40
2019-02-20T06:44:29.786Z,92.30
2019-02-20T06:47:00.437Z,92.20
2019-02-20T06:49:32.064Z,92.20
2019-02-20T06:52:02.544Z,92.10
2019-02-20T06:54:33.047Z,92.00
2019-02-20T06:57:03.924Z,91.60
2019-02-20T06:59:34.456Z,91.60
2019-02-20T07:02:05.204Z,91.50
2019-02-20T07:04:35.845Z,91.30
2019-02-20T07:07:45.134Z,90.80
2019-02-20T07:10:47.686Z,90.50
2019-02-20T07:13:31.900Z,90.70
2019-02-20T07:16:36.574Z,90.80
2019-02-20T07:19:34.063Z,91.50
2019-02-20T07:22:28.245Z,90.90
2019-02-20T07:25:37.238Z,90.70
2019-02-20T07:28:46.088Z,90.90
2019-02-20T07:31:16.721Z,90.50
2019-02-20T07:33:47.431Z,90.40
2019-02-20T07:36:18.177Z,90.30
2019-02-20T07:38:48.799Z,90.40
2019-02-20T07:41:20.527Z,90.30
2019-02-20T07:43:51.164Z,90.10
2019-02-20T07:46:21.707Z,89.90
2019-02-20T07:48:52.299Z,89.40
2019-02-20T07:51:22.832Z,89.30
2019-02-20T07:53:53.370Z,88.80
2019-02-20T07:56:25.138Z,88.50
2019-02-20T07:58:55.685Z,86.40
2019-02-20T08:01:26.283Z,85.90
2019-02-20T08:03:56.868Z,85.20
2019-02-20T08:06:27.495Z,84.30
2019-02-20T08:08:58.123Z,84.50
2019-02-20T08:11:28.977Z,84.80
2019-02-20T08:13:59.447Z,84.30
2019-02-20T08:16:30.034Z,84.00
2019-02-20T08:19:00.813Z,82.80
2019-02-20T08:21:32.409Z,83.10
2019-02-20T08:24:03.045Z,83.50
2019-02-20T08:26:33.391Z,83.80
2019-02-20T08:29:04.101Z,84.30
2019-02-20T08:31:34.956Z,84.10
2019-02-20T08:34:05.665Z,81.60
2019-02-20T08:36:36.417Z,80.80
2019-02-20T08:39:07.220Z,80.70
2019-02-20T08:41:38.302Z,80.70
2019-02-20T08:44:08.945Z,80.20
2019-02-20T08:46:39.607Z,79.60
2019-02-20T08:49:10.409Z,79.10
2019-02-20T08:51:41.063Z,79.00
2019-02-20T08:54:11.675Z,77.70
2019-02-20T08:56:42.195Z,76.00
2019-02-20T08:59:12.885Z,77.70
2019-02-20T09:01:43.541Z,76.40
2019-02-20T09:04:14.290Z,74.30
2019-02-20T09:06:44.864Z,74.00
2019-02-20T09:09:15.534Z,74.20
2019-02-20T09:11:46.191Z,75.00
2019-02-20T09:14:17.080Z,74.90
2019-02-20T09:16:47.718Z,77.60
2019-02-20T09:19:18.272Z,77.70
2019-02-20T09:21:48.899Z,78.80
2019-02-20T09:24:19.525Z,79.70
2019-02-20T09:26:50.180Z,79.40
2019-02-20T09:29:20.804Z,80.30
2019-02-20T09:31:51.479Z,80.50
2019-02-20T09:34:22.049Z,80.00
2019-02-20T09:36:52.668Z,78.40
2019-02-20T09:39:33.369Z,78.20
2019-02-20T09:42:08.458Z,78.80
2019-02-20T09:44:43.606Z,77.60
2019-02-20T09:47:15.254Z,78.50
2019-02-20T09:49:45.802Z,78.40
2019-02-20T09:52:16.571Z,77.50
2019-02-20T09:54:47.137Z,77.70
2019-02-20T09:57:17.647Z,76.70
2019-02-20T09:59:48.213Z,77.50
2019-02-20T10:02:18.845Z,78.60
2019-02-20T10:04:49.505Z,79.00
2019-02-20T10:07:20.104Z,80.90
2019-02-20T10:09:50.703Z,83.90
2019-02-20T10:12:21.282Z,87.50
2019-02-20T10:14:51.924Z,89.80
2019-02-20T10:17:22.425Z,90.70
2019-02-20T10:19:52.971Z,91.70
2019-02-20T10:22:23.599Z,92.10
2019-02-20T10:24:54.097Z,92.50
2019-02-20T10:27:24.666Z,93.00
2019-02-20T10:29:55.076Z,93.30
2019-02-20T10:32:25.711Z,93.60
2019-02-20T10:34:56.182Z,93.80
2019-02-20T10:37:26.674Z,93.80
2019-02-20T10:39:57.297Z,93.80
2019-02-20T10:42:28.049Z,93.70
2019-02-20T10:44:58.566Z,93.20
2019-02-20T10:47:29.094Z,92.70
2019-02-20T10:49:59.730Z,92.30
2019-02-20T10:52:30.338Z,92.40
2019-02-20T10:55:00.857Z,92.10
2019-02-20T10:57:31.589Z,90.90
2019-02-20T11:00:02.359Z,90.90
2019-02-20T11:02:34.830Z,90.50
2019-02-20T11:05:05.542Z,90.30
2019-02-20T11:07:36.222Z,89.70
2019-02-20T11:10:07.305Z,90.00
2019-02-20T11:12:37.992Z,90.60
2019-02-20T11:15:08.817Z,90.60
2019-02-20T11:17:39.656Z,90.70
2019-02-20T11:20:10.498Z,91.50
2019-02-20T11:22:41.008Z,89.80
2019-02-20T11:25:11.673Z,88.10
2019-02-20T11:27:42.272Z,87.20
2019-02-20T11:30:15.747Z,87.50
2019-02-20T11:32:46.325Z,83.70
2019-02-20T11:35:16.834Z,81.60
2019-02-20T11:37:47.465Z,80.30
2019-02-20T11:40:18.021Z,80.40
2019-02-20T11:42:48.460Z,80.90
2019-02-20T11:45:19.143Z,81.60
2019-02-20T11:47:49.673Z,82.30
2019-02-20T11:50:20.313Z,83.00
2019-02-20T11:52:51.174Z,82.40
2019-02-20T11:55:21.899Z,81.90
2019-02-20T11:58:00.502Z,81.80
2019-02-20T12:00:26.834Z,80.30
2019-02-20T12:02:57.540Z,80.70
2019-02-20T12:05:28.189Z,80.30
2019-02-20T12:07:58.866Z,80.10
2019-02-20T12:10:29.482Z,79.30
2019-02-20T12:13:00.288Z,77.90
2019-02-20T12:15:30.967Z,77.60
2019-02-20T12:18:01.593Z,77.30
2019-02-20T12:20:32.389Z,75.90
2019-02-20T12:23:03.107Z,75.30
2019-02-20T12:25:33.737Z,75.30
2019-02-20T12:28:04.427Z,74.90
2019-02-20T12:30:35.681Z,74.10
2019-02-20T12:33:06.396Z,72.70
2019-02-20T12:35:36.841Z,71.90
2019-02-20T12:38:07.487Z,72.30
2019-02-20T12:40:37.950Z,72.40
2019-02-20T12:43:08.476Z,72.70
2019-02-20T12:45:39.054Z,75.20
2019-02-20T12:48:09.554Z,73.90
2019-02-20T12:50:40.066Z,71.40
2019-02-20T12:53:10.696Z,70.40
2019-02-20T12:55:41.196Z,72.00
2019-02-20T12:58:11.846Z,71.70
2019-02-20T13:00:43.743Z,71.10
2019-02-20T13:03:14.582Z,70.00
2019-02-20T13:05:45.104Z,70.90
2019-02-20T13:08:15.697Z,72.70
2019-02-20T13:10:46.453Z,73.50
2019-02-20T13:13:17.085Z,73.90
2019-02-20T13:15:47.937Z,74.80
2019-02-20T13:18:19.776Z,75.40
2019-02-20T13:20:50.637Z,76.20
2019-02-20T13:23:21.206Z,76.60
2019-02-20T13:25:51.723Z,77.70
2019-02-20T13:28:22.411Z,76.60
2019-02-20T13:30:53.047Z,77.10
2019-02-20T13:33:23.669Z,77.50
2019-02-20T13:35:54.332Z,77.20
2019-02-20T13:38:24.851Z,77.10
2019-02-20T13:40:55.415Z,76.70
2019-02-20T13:43:26.412Z,74.50
2019-02-20T13:45:57.552Z,75.00
2019-02-20T13:48:28.445Z,75.60
2019-02-20T13:50:59.146Z,76.20
2019-02-20T13:53:29.871Z,76.30
2019-02-20T13:56:00.488Z,75.30
2019-02-20T13:58:31.517Z,76.00
2019-02-20T14:01:02.118Z,75.70
2019-02-20T14:03:32.712Z,76.00
2019-02-20T14:06:03.390Z,76.10
2019-02-20T14:08:34.272Z,75.80
2019-02-20T14:11:05.054Z,76.10
2019-02-20T14:13:35.790Z,76.80
2019-02-20T14:16:06.372Z,77.70
2019-02-20T14:18:37.293Z,77.80
2019-02-20T14:21:08.140Z,78.20
2019-02-20T14:23:38.751Z,78.50
2019-02-20T14:26:10.016Z,79.30
2019-02-20T14:28:40.571Z,79.60
2019-02-20T14:31:11.257Z,80.00
2019-02-20T14:33:41.992Z,80.10
2019-02-20T14:36:12.685Z,80.30
2019-02-20T14:38:43.322Z,79.90
2019-02-20T14:41:16.366Z,79.80
2019-02-20T14:43:47.282Z,79.60
2019-02-20T14:46:18.148Z,79.40
2019-02-20T14:48:48.762Z,79.80
2019-02-20T14:51:19.509Z,79.60
2019-02-20T14:53:50.734Z,79.90
2019-02-20T14:56:22.574Z,79.60
2019-02-20T14:58:53.244Z,79.80
2019-02-20T15:01:25.298Z,79.40
2019-02-20T15:03:56.243Z,79.70
2019-02-20T15:06:27.381Z,79.70
2019-02-20T15:08:58.170Z,79.60
2019-02-20T15:11:28.933Z,78.80
2019-02-20T15:13:59.814Z,77.80
2019-02-20T15:16:30.629Z,77.40
2019-02-20T15:19:01.535Z,77.80
2019-02-20T15:21:32.595Z,77.90
2019-02-20T15:24:03.556Z,77.30
2019-02-20T15:26:34.470Z,77.60
2019-02-20T15:29:05.252Z,77.80
2019-02-20T15:31:36.288Z,77.90
2019-02-20T15:34:07.346Z,78.10
2019-02-20T15:36:40.292Z,78.10
2019-02-20T15:39:11.031Z,78.40
2019-02-20T15:41:42.146Z,77.50
2019-02-20T15:44:12.916Z,76.50
2019-02-20T15:46:45.821Z,75.80
2019-02-20T15:49:19.671Z,75.60
2019-02-20T15:51:54.393Z,76.00
2019-02-20T15:54:25.032Z,77.60
2019-02-20T15:56:55.882Z,76.10
2019-02-20T15:59:26.707Z,76.50
2019-02-20T16:01:58.671Z,76.60
2019-02-20T16:04:29.336Z,76.70
2019-02-20T16:07:03.247Z,76.90
2019-02-20T16:09:36.666Z,77.30
2019-02-20T16:12:09.598Z,78.10
2019-02-20T16:14:42.147Z,78.00
2019-02-20T16:17:13.198Z,78.20
2019-02-20T16:19:44.155Z,78.60
2019-02-20T16:22:14.975Z,78.60
2019-02-20T16:24:45.634Z,78.60
2019-02-20T16:27:21.536Z,78.30
2019-02-20T16:29:54.319Z,78.20
2019-02-20T16:32:26.209Z,78.50
2019-02-20T16:34:58.684Z,78.90
2019-02-20T16:37:32.944Z,79.00
2019-02-20T16:40:08.776Z,79.20
2019-02-20T16:42:41.762Z,79.80
2019-02-20T16:45:21.516Z,80.00
2019-02-20T16:47:53.009Z,79.90
2019-02-20T16:50:25.383Z,79.90
2019-02-20T16:52:57.597Z,80.20
2019-02-20T16:55:30.749Z,80.30
2019-02-20T16:58:07.522Z,80.60
2019-02-20T17:00:38.962Z,80.60
2019-02-20T17:03:12.544Z,80.60
2019-02-20T17:05:43.234Z,80.80
2019-02-20T17:08:15.148Z,80.50
2019-02-20T17:10:47.160Z,80.30
2019-02-20T17:13:20.366Z,80.60
2019-02-20T17:15:52.194Z,80.30
2019-02-20T17:18:24.172Z,80.40
2019-02-20T17:20:54.903Z,80.70
2019-02-20T17:23:26.455Z,80.90
2019-02-20T17:26:00.634Z,81.50
2019-02-20T17:28:32.514Z,81.10
2019-02-20T17:31:03.418Z,81.30
2019-02-20T17:33:34.323Z,81.30
2019-02-20T17:36:06.501Z,81.90
2019-02-20T17:38:39.079Z,82.00
2019-02-20T17:41:11.734Z,82.60
2019-02-20T17:43:43.894Z,83.10
2019-02-20T17:46:15.174Z,83.60
2019-02-20T17:48:47.560Z,83.90
2019-02-20T17:51:18.526Z,84.30
2019-02-20T17:53:52.615Z,84.60
2019-02-20T17:56:23.781Z,85.10
2019-02-20T17:58:58.183Z,85.80
2019-02-20T18:01:31.895Z,85.10
2019-02-20T18:04:05.864Z,85.10
2019-02-20T18:06:37.916Z,85.50
2019-02-20T18:09:17.294Z,85.80
2019-02-20T18:11:49.873Z,86.10
2019-02-20T18:14:26.617Z,86.10
2019-02-20T18:16:59.479Z,86.40
2019-02-20T18:19:34.785Z,87.20
2019-02-20T18:22:07.070Z,86.70
2019-02-20T18:24:38.986Z,87.40
2019-02-20T18:27:09.804Z,87.80
2019-02-20T18:29:41.755Z,88.10
2019-02-20T18:32:12.752Z,88.60
2019-02-20T18:34:45.675Z,88.90
2019-02-20T18:37:22.342Z,88.90
2019-02-20T18:40:00.690Z,88.90
2019-02-20T18:42:33.203Z,88.90
2019-02-20T18:45:10.416Z,89.20
2019-02-20T18:47:42.093Z,88.80
2019-02-20T18:50:17.956Z,88.70
2019-02-20T18:52:51.942Z,88.60
2019-02-20T18:55:45.054Z,88.70
2019-02-20T18:58:18.965Z,89.00
2019-02-20T19:00:54.004Z,88.80
2019-02-20T19:03:27.455Z,88.90
2019-02-20T19:05:58.674Z,88.70
2019-02-20T19:08:41.955Z,88.70
2019-02-20T19:11:18.852Z,88.70
2019-02-20T19:14:12.310Z,89.20
2019-02-20T19:17:15.596Z,89.10
2019-02-20T19:20:12.585Z,90.10
2019-02-20T19:23:10.733Z,90.00
2019-02-20T19:26:23.118Z,90.10
2019-02-20T19:29:23.086Z,90.60
2019-02-20T19:32:24.745Z,90.30
2019-02-20T19:35:18.881Z,90.50
2019-02-20T19:38:15.538Z,90.70
2019-02-20T19:41:24.735Z,90.60
2019-02-20T19:44:17.220Z,90.80
2019-02-20T19:47:25.191Z,90.80
2019-02-20T19:50:35.983Z,90.90
2019-02-20T19:53:29.410Z,90.80
2019-02-20T19:56:27.024Z,90.70
2019-02-20T19:59:22.496Z,90.70
2019-02-20T20:02:33.069Z,90.70
2019-02-20T20:05:42.316Z,90.70
2019-02-20T20:08:43.902Z,90.80
2019-02-20T20:11:49.741Z,90.70
2019-02-20T20:14:42.119Z,90.60
2019-02-20T20:17:48.145Z,90.60
2019-02-20T20:20:56.405Z,90.40
2019-02-20T20:24:05.923Z,90.30
2019-02-20T20:27:15.028Z,90.20
2019-02-20T20:30:11.912Z,90.00
2019-02-20T20:33:17.813Z,90.00
2019-02-20T20:36:13.275Z,89.70
2019-02-20T20:39:14.166Z,89.60
2019-02-20T20:42:10.856Z,89.50
2019-02-20T20:45:08.135Z,89.40
2019-02-20T20:48:11.206Z,89.10
2019-02-20T20:51:10.665Z,88.50
2019-02-20T20:54:19.823Z,88.00
2019-02-20T20:57:18.594Z,87.80
2019-02-20T21:00:29.151Z,87.80
2019-02-20T21:03:06.396Z,87.80
2019-02-20T21:06:03.102Z,87.50
2019-02-20T21:09:15.407Z,87.60
2019-02-20T21:11:59.008Z,87.40
2019-02-20T21:15:08.374Z,87.10
2019-02-20T21:18:04.292Z,87.00
2019-02-20T21:21:14.745Z,87.10
2019-02-20T21:24:18.001Z,86.20
2019-02-20T21:27:27.296Z,85.80
2019-02-20T21:30:36.430Z,82.40
2019-02-20T21:33:47.543Z,81.10
2019-02-20T21:36:34.159Z,82.10
2019-02-20T21:39:33.017Z,81.60
2019-02-20T21:42:43.869Z,82.10
2019-02-20T21:45:39.512Z,82.70
2019-02-20T21:48:40.210Z,83.70
2019-02-20T21:51:24.981Z,84.00
2019-02-20T21:54:10.502Z,84.20
2019-02-20T21:57:19.536Z,84.40
2019-02-20T22:00:13.035Z,84.60
2019-02-20T22:02:58.674Z,84.80
2019-02-20T22:06:07.783Z,84.30
2019-02-20T22:09:07.712Z,84.30
2019-02-20T22:12:18.240Z,84.10
2019-02-20T22:14:59.791Z,84.30
2019-02-20T22:17:43.300Z,84.30
2019-02-20T22:20:52.337Z,84.40
2019-02-20T22:24:01.433Z,84.30
2019-02-20T22:26:41.208Z,83.90
2019-02-20T22:29:36.558Z,83.70
2019-02-20T22:32:33.065Z,83.40
2019-02-20T22:35:31.673Z,83.40
2019-02-20T22:38:27.776Z,82.80
2019-02-20T22:41:21.679Z,82.60
2019-02-20T22:44:30.592Z,82.50
2019-02-20T22:47:39.474Z,82.40
2019-02-20T22:50:48.454Z,82.40
2019-02-20T22:53:47.471Z,82.20
2019-02-20T22:56:42.142Z,82.30
2019-02-20T22:59:46.454Z,82.60
2019-02-20T23:02:55.376Z,83.00
2019-02-20T23:06:05.422Z,83.30
2019-02-20T23:08:46.932Z,83.80
2019-02-20T23:11:43.944Z,84.20
2019-02-20T23:14:52.996Z,84.50
2019-02-20T23:17:23.843Z,85.10
2019-02-20T23:19:55.713Z,85.80
2019-02-20T23:22:26.271Z,86.30
2019-02-20T23:24:56.862Z,86.70
2019-02-20T23:27:27.342Z,87.10
2019-02-20T23:29:58.015Z,87.20
2019-02-20T23:32:28.776Z,87.50
2019-02-20T23:34:59.495Z,88.00
2019-02-20T23:37:30.124Z,88.60
2019-02-20T23:40:00.744Z,89.00
2019-02-20T23:42:31.346Z,89.60
2019-02-20T23:45:01.824Z,89.70
2019-02-20T23:47:32.730Z,90.00
2019-02-20T23:50:03.401Z,90.40
2019-02-20T23:52:34.046Z,90.20
2019-02-20T23:55:05.225Z,90.30
2019-02-20T23:57:35.883Z,90.30
